Time,TemperatureF,DewpointF,PressureIn,WindDirection,WindDirectionDegrees,WindSpeedMPH,WindSpeedGustMPH,Humidity,HourlyPrecipIn,Conditions,Clouds,dailyrainin,SoftwareType,DateUTC
2013-03-06 00:02:00,32.0,23.0,-100.00,WNW,290,14.0,18.0,68,-99.99,,,-99.99,,2013-03-06 06:02:00,
2013-03-06 00:11:00,32.0,23.0,-100.00,WNW,290,9.0,14.0,68,-99.99,,,-99.99,,2013-03-06 06:11:00,
2013-03-06 00:22:00,32.0,23.0,-100.00,WNW,290,9.0,14.0,68,-99.99,,,-99.99,,2013-03-06 06:22:00,
2013-03-06 00:32:00,32.0,23.0,-100.00,WNW,300,16.0,21.0,69,-99.99,,,-99.99,,2013-03-06 06:32:00,
2013-03-06 00:42:00,32.0,23.0,-100.00,WNW,300,16.0,21.0,69,-99.99,,,-99.99,,2013-03-06 06:42:00,
2013-03-06 00:52:00,32.0,23.0,-100.00,WNW,295,16.0,21.0,70,-99.99,,,-99.99,,2013-03-06 06:52:00,
2013-03-06 01:01:00,32.0,23.0,-100.00,WNW,295,16.0,21.0,70,-99.99,,,-99.99,,2013-03-06 07:01:00,
2013-03-06 01:11:00,32.0,24.0,-100.00,NW,305,14.0,21.0,71,-99.99,,,-99.99,,2013-03-06 07:11:00,
2013-03-06 01:22:00,32.0,24.0,-100.00,NW,310,21.0,27.0,71,-99.99,,,-99.99,,2013-03-06 07:22:00,
2013-03-06 01:32:00,32.0,24.0,-100.00,NW,310,21.0,27.0,71,-99.99,,,-99.99,,2013-03-06 07:32:00,
2013-03-06 01:42:00,32.0,23.0,-100.00,WNW,295,18.0,25.0,70,-99.99,,,-99.99,,2013-03-06 07:42:00,
2013-03-06 01:52:00,32.0,23.0,-100.00,WNW,300,16.0,21.0,70,-99.99,,,-99.99,,2013-03-06 07:52:00,
2013-03-06 02:01:00,32.0,23.0,-100.00,WNW,300,16.0,21.0,70,-99.99,,,-99.99,,2013-03-06 08:01:00,
2013-03-06 02:11:00,32.0,23.0,-100.00,NW,325,12.0,18.0,70,-99.99,,,-99.99,,2013-03-06 08:11:00,
2013-03-06 02:21:00,32.0,23.0,-100.00,NW,320,12.0,19.0,69,-99.99,,,-99.99,,2013-03-06 08:21:00,
2013-03-06 02:32:00,32.0,23.0,-100.00,NW,320,12.0,19.0,69,-99.99,,,-99.99,,2013-03-06 08:32:00,
2013-03-06 02:42:00,32.0,23.0,-100.00,NW,310,16.0,23.0,69,-99.99,,,-99.99,,2013-03-06 08:42:00,
2013-03-06 02:52:00,32.0,23.0,-100.00,NW,305,11.0,21.0,70,-99.99,,,-99.99,,2013-03-06 08:52:00,
2013-03-06 03:01:00,32.0,23.0,-100.00,NW,305,11.0,21.0,70,-99.99,,,-99.99,,2013-03-06 09:01:00,
2013-03-06 03:12:00,31.0,23.0,-100.00,WNW,300,21.0,25.0,71,-99.99,,,-99.99,,2013-03-06 09:12:00,
2013-03-06 03:21:00,31.0,23.0,-100.00,NW,305,21.0,31.0,71,-99.99,,,-99.99,,2013-03-06 09:21:00,
2013-03-06 03:32:00,31.0,23.0,-100.00,NW,305,21.0,31.0,71,-99.99,,,-99.99,,2013-03-06 09:32:00,
2013-03-06 03:42:00,31.0,22.0,-100.00,NW,310,21.0,37.0,70,-99.99,,,-99.99,,2013-03-06 09:42:00,
2013-03-06 03:52:00,31.0,22.0,-100.00,NNW,340,14.0,24.0,69,-99.99,,,-99.99,,2013-03-06 09:52:00,
2013-03-06 04:01:00,31.0,22.0,-100.00,NNW,340,14.0,24.0,69,-99.99,,,-99.99,,2013-03-06 10:01:00,
2013-03-06 04:11:00,31.0,22.0,-100.00,NW,305,19.0,25.0,69,-99.99,,,-99.99,,2013-03-06 10:11:00,
2013-03-06 04:22:00,31.0,22.0,-100.00,NW,310,14.0,19.0,69,-99.99,,,-99.99,,2013-03-06 10:22:00,
2013-03-06 04:32:00,31.0,22.0,-100.00,NW,310,14.0,19.0,69,-99.99,,,-99.99,,2013-03-06 10:32:00,
2013-03-06 04:42:00,31.0,22.0,-100.00,NW,315,16.0,24.0,69,-99.99,,,-99.99,,2013-03-06 10:42:00,
2013-03-06 04:52:00,31.0,21.0,-100.00,WNW,295,18.0,24.0,68,-99.99,,,-99.99,,2013-03-06 10:52:00,
2013-03-06 05:02:00,31.0,21.0,-100.00,WNW,295,18.0,24.0,68,-99.99,,,-99.99,,2013-03-06 11:02:00,
2013-03-06 05:11:00,31.0,22.0,-100.00,NW,315,16.0,21.0,69,-99.99,,,-99.99,,2013-03-06 11:11:00,
2013-03-06 05:22:00,31.0,22.0,-100.00,NW,310,12.0,16.0,69,-99.99,,,-99.99,,2013-03-06 11:22:00,
2013-03-06 05:32:00,31.0,22.0,-100.00,NW,310,12.0,16.0,69,-99.99,,,-99.99,,2013-03-06 11:32:00,
2013-03-06 05:42:00,31.0,22.0,-100.00,NW,325,6.0,11.0,69,-99.99,,,-99.99,,2013-03-06 11:42:00,
2013-03-06 05:52:00,31.0,23.0,-100.00,NW,305,12.0,19.0,70,-99.99,,,-99.99,,2013-03-06 11:52:00,
2013-03-06 06:02:00,31.0,23.0,-100.00,NW,305,12.0,19.0,70,-99.99,,,-99.99,,2013-03-06 12:02:00,
2013-03-06 06:11:00,31.0,22.0,-100.00,WNW,300,14.0,19.0,70,-99.99,,,-99.99,,2013-03-06 12:11:00,
2013-03-06 06:22:00,31.0,23.0,-100.00,NW,305,6.0,9.0,71,-99.99,,,-99.99,,2013-03-06 12:22:00,
2013-03-06 06:33:00,31.0,23.0,-100.00,NW,305,6.0,9.0,71,-99.99,,,-99.99,,2013-03-06 12:33:00,
2013-03-06 06:42:00,31.0,23.0,-100.00,WNW,300,10.0,14.0,71,-99.99,,,-99.99,,2013-03-06 12:42:00,
2013-03-06 06:53:00,31.0,23.0,-100.00,NW,315,16.0,24.0,71,-99.99,,,-99.99,,2013-03-06 12:53:00,
2013-03-06 07:02:00,31.0,23.0,-100.00,NW,315,16.0,24.0,71,-99.99,,,-99.99,,2013-03-06 13:02:00,
2013-03-06 07:12:00,31.0,22.0,-100.00,NW,310,14.0,19.0,71,-99.99,,,-99.99,,2013-03-06 13:12:00,
2013-03-06 07:22:00,31.0,23.0,-100.00,NW,315,16.0,24.0,72,-99.99,,,-99.99,,2013-03-06 13:22:00,
2013-03-06 07:32:00,31.0,23.0,-100.00,NW,315,16.0,24.0,72,-99.99,,,-99.99,,2013-03-06 13:32:00,
2013-03-06 07:42:00,31.0,22.0,-100.00,NW,310,10.0,14.0,71,-99.99,,,-99.99,,2013-03-06 13:42:00,
2013-03-06 07:52:00,30.0,22.0,-100.00,NW,315,19.0,25.0,71,-99.99,,,-99.99,,2013-03-06 13:52:00,
2013-03-06 08:01:00,30.0,22.0,-100.00,NW,315,19.0,25.0,71,-99.99,,,-99.99,,2013-03-06 14:01:00,
2013-03-06 08:11:00,30.0,22.0,-100.00,NNW,330,14.0,21.0,71,-99.99,,,-99.99,,2013-03-06 14:11:00,
2013-03-06 08:22:00,30.0,22.0,-100.00,NW,320,14.0,19.0,71,-99.99,,,-99.99,,2013-03-06 14:22:00,
2013-03-06 08:32:00,30.0,22.0,-100.00,NW,320,14.0,19.0,71,-99.99,,,-99.99,,2013-03-06 14:32:00,
2013-03-06 08:42:00,30.0,22.0,-100.00,NW,315,16.0,24.0,71,-99.99,,,-99.99,,2013-03-06 14:42:00,
2013-03-06 08:52:00,30.0,22.0,-100.00,NW,305,10.0,16.0,71,-99.99,,,-99.99,,2013-03-06 14:52:00,
2013-03-06 09:00:00,31.0,22.0,-100.00,NNW,330,12.0,18.0,70,-99.99,,,-99.99,,2013-03-06 15:00:00,
2013-03-06 09:02:00,30.0,22.0,-100.00,NW,305,10.0,16.0,71,-99.99,,,-99.99,,2013-03-06 15:02:00,
2013-03-06 09:11:00,30.0,22.0,-100.00,NNW,340,14.0,21.0,70,-99.99,,,-99.99,,2013-03-06 15:11:00,
2013-03-06 09:21:00,31.0,22.0,-100.00,NNW,335,11.0,17.0,70,-99.99,,,-99.99,,2013-03-06 15:21:00,
2013-03-06 09:32:00,31.0,22.0,-100.00,NNW,335,11.0,17.0,70,-99.99,,,-99.99,,2013-03-06 15:32:00,
2013-03-06 09:42:00,31.0,22.0,-100.00,NNW,330,12.0,18.0,70,-99.99,,,-99.99,,2013-03-06 15:42:00,
2013-03-06 09:52:00,31.0,22.0,-100.00,NNW,330,12.0,18.0,70,-99.99,,,-99.99,,2013-03-06 15:52:00,
2013-03-06 10:11:00,31.0,22.0,-100.00,NNW,330,14.0,18.0,70,-99.99,,,-99.99,,2013-03-06 16:11:00,
2013-03-06 10:21:00,31.0,23.0,-100.00,NW,310,10.0,18.0,71,-99.99,,,-99.99,,2013-03-06 16:21:00,
2013-03-06 10:32:00,31.0,23.0,-100.00,NW,310,10.0,18.0,71,-99.99,,,-99.99,,2013-03-06 16:32:00,
2013-03-06 10:42:00,31.0,23.0,-100.00,NNW,330,17.0,25.0,70,-99.99,,,-99.99,,2013-03-06 16:42:00,
2013-03-06 10:52:00,32.0,23.0,-100.00,NW,310,4.0,10.0,70,-99.99,,,-99.99,,2013-03-06 16:52:00,
2013-03-06 11:01:00,32.0,23.0,-100.00,NW,310,4.0,10.0,70,-99.99,,,-99.99,,2013-03-06 17:01:00,
2013-03-06 11:11:00,31.0,22.0,-100.00,NW,315,17.0,23.0,68,-99.99,,,-99.99,,2013-03-06 17:11:00,
2013-03-06 11:22:00,32.0,23.0,-100.00,NW,315,8.0,14.0,68,-99.99,,,-99.99,,2013-03-06 17:22:00,
2013-03-06 11:32:00,32.0,23.0,-100.00,NW,315,8.0,14.0,68,-99.99,,,-99.99,,2013-03-06 17:32:00,
2013-03-06 11:42:00,33.0,23.0,-100.00,WNW,295,11.0,16.0,65,-99.99,,,-99.99,,2013-03-06 17:42:00,
2013-03-06 11:53:00,34.0,23.0,-100.00,NW,315,12.0,23.0,64,-99.99,,,-99.99,,2013-03-06 17:53:00,
2013-03-06 12:02:00,34.0,23.0,-100.00,NW,315,12.0,23.0,64,-99.99,,,-99.99,,2013-03-06 18:02:00,
2013-03-06 12:28:00,34.0,23.0,-100.00,NW,325,4.0,8.0,64,-99.99,,,-99.99,,2013-03-06 18:28:00,
2013-03-06 12:42:00,34.0,23.0,-100.00,NW,320,6.0,10.0,63,-99.99,,,-99.99,,2013-03-06 18:42:00,
2013-03-06 12:53:00,34.0,23.0,-100.00,NW,325,4.0,6.0,62,-99.99,,,-99.99,,2013-03-06 18:53:00,
2013-03-06 13:02:00,34.0,23.0,-100.00,NW,325,4.0,6.0,62,-99.99,,,-99.99,,2013-03-06 19:02:00,
2013-03-06 13:11:00,34.0,22.0,-100.00,NNW,335,8.0,12.0,63,-99.99,,,-99.99,,2013-03-06 19:11:00,
2013-03-06 13:22:00,34.0,23.0,-100.00,NW,320,6.0,10.0,64,-99.99,,,-99.99,,2013-03-06 19:22:00,
2013-03-06 13:32:00,34.0,23.0,-100.00,NW,320,6.0,10.0,64,-99.99,,,-99.99,,2013-03-06 19:32:00,
2013-03-06 13:43:00,34.0,23.0,-100.00,NW,315,10.0,14.0,63,-99.99,,,-99.99,,2013-03-06 19:43:00,
2013-03-06 13:53:00,34.0,23.0,-100.00,NNW,340,6.0,9.0,63,-99.99,,,-99.99,,2013-03-06 19:53:00,
2013-03-06 14:02:00,34.0,23.0,-100.00,NNW,340,6.0,9.0,63,-99.99,,,-99.99,,2013-03-06 20:02:00,
2013-03-06 14:12:00,34.0,23.0,-100.00,NW,315,9.0,16.0,63,-99.99,,,-99.99,,2013-03-06 20:12:00,
2013-03-06 14:22:00,34.0,23.0,-100.00,NW,315,8.0,14.0,63,-99.99,,,-99.99,,2013-03-06 20:22:00,
2013-03-06 14:32:00,34.0,23.0,-100.00,NW,315,8.0,14.0,63,-99.99,,,-99.99,,2013-03-06 20:32:00,
2013-03-06 14:42:00,34.0,23.0,-100.00,NW,305,10.0,16.0,62,-99.99,,,-99.99,,2013-03-06 20:42:00,
2013-03-06 14:53:00,34.0,23.0,-100.00,WNW,290,4.0,8.0,63,-99.99,,,-99.99,,2013-03-06 20:53:00,
2013-03-06 15:02:00,34.0,23.0,-100.00,WNW,290,4.0,8.0,63,-99.99,,,-99.99,,2013-03-06 21:02:00,
2013-03-06 15:12:00,34.0,23.0,-100.00,NW,325,10.0,14.0,63,-99.99,,,-99.99,,2013-03-06 21:12:00,
2013-03-06 15:22:00,34.0,23.0,-100.00,NW,310,8.0,14.0,63,-99.99,,,-99.99,,2013-03-06 21:22:00,
2013-03-06 15:32:00,34.0,23.0,-100.00,NW,310,8.0,14.0,63,-99.99,,,-99.99,,2013-03-06 21:32:00,
2013-03-06 15:42:00,34.0,23.0,-100.00,NW,325,12.0,14.0,62,-99.99,,,-99.99,,2013-03-06 21:42:00,
2013-03-06 15:52:00,35.0,23.0,-100.00,NW,310,10.0,14.0,62,-99.99,,,-99.99,,2013-03-06 21:52:00,
2013-03-06 16:01:00,35.0,23.0,-100.00,NW,310,10.0,14.0,62,-99.99,,,-99.99,,2013-03-06 22:01:00,
2013-03-06 16:11:00,35.0,24.0,-100.00,NNW,340,9.0,12.0,63,-99.99,,,-99.99,,2013-03-06 22:11:00,
2013-03-06 16:22:00,34.0,23.0,-100.00,North,0,9.0,10.0,63,-99.99,,,-99.99,,2013-03-06 22:22:00,
2013-03-06 16:32:00,34.0,23.0,-100.00,North,0,9.0,10.0,63,-99.99,,,-99.99,,2013-03-06 22:32:00,
2013-03-06 16:42:00,34.0,23.0,-100.00,North,350,6.0,9.0,64,-99.99,,,-99.99,,2013-03-06 22:42:00,
2013-03-06 16:52:00,34.0,23.0,-100.00,NNW,345,9.0,10.0,64,-99.99,,,-99.99,,2013-03-06 22:52:00,
2013-03-06 17:01:00,34.0,23.0,-100.00,NNW,345,9.0,10.0,64,-99.99,,,-99.99,,2013-03-06 23:01:00,
2013-03-06 17:11:00,34.0,23.0,-100.00,NNW,340,10.0,14.0,65,-99.99,,,-99.99,,2013-03-06 23:11:00,
2013-03-06 17:21:00,34.0,23.0,-100.00,NNW,345,8.0,9.0,65,-99.99,,,-99.99,,2013-03-06 23:21:00,
2013-03-06 17:32:00,34.0,23.0,-100.00,NNW,345,8.0,9.0,65,-99.99,,,-99.99,,2013-03-06 23:32:00,
2013-03-06 17:42:00,33.0,23.0,-100.00,NW,325,6.0,10.0,66,-99.99,,,-99.99,,2013-03-06 23:42:00,
2013-03-06 17:52:00,33.0,23.0,-100.00,North,0,3.0,6.0,66,-99.99,,,-99.99,,2013-03-06 23:52:00,
2013-03-06 18:01:00,33.0,23.0,-100.00,North,0,3.0,6.0,66,-99.99,,,-99.99,,2013-03-07 00:01:00,
2013-03-06 18:11:00,33.0,23.0,-100.00,North,0,8.0,10.0,67,-99.99,,,-99.99,,2013-03-07 00:11:00,
2013-03-06 18:21:00,33.0,23.0,-100.00,North,0,8.0,10.0,67,-99.99,,,-99.99,,2013-03-07 00:21:00,
2013-03-06 18:32:00,33.0,24.0,-100.00,North,10,4.0,8.0,69,-99.99,,,-99.99,,2013-03-07 00:32:00,
2013-03-06 18:42:00,33.0,24.0,-100.00,North,10,4.0,8.0,69,-99.99,,,-99.99,,2013-03-07 00:42:00,
2013-03-06 18:52:00,32.0,23.0,-100.00,North,0,4.0,9.0,69,-99.99,,,-99.99,,2013-03-07 00:52:00,
2013-03-06 19:01:00,32.0,23.0,-100.00,North,0,4.0,9.0,69,-99.99,,,-99.99,,2013-03-07 01:01:00,
2013-03-06 19:11:00,32.0,23.0,-100.00,North,0,8.0,10.0,70,-99.99,,,-99.99,,2013-03-07 01:11:00,
2013-03-06 19:21:00,32.0,23.0,-100.00,NNW,340,3.0,4.0,70,-99.99,,,-99.99,,2013-03-07 01:21:00,
2013-03-06 19:32:00,32.0,23.0,-100.00,NNW,340,3.0,4.0,70,-99.99,,,-99.99,,2013-03-07 01:32:00,
2013-03-06 19:42:00,32.0,23.0,-100.00,NNW,340,6.0,6.0,71,-99.99,,,-99.99,,2013-03-07 01:42:00,
2013-03-06 19:52:00,32.0,23.0,-100.00,North,355,8.0,10.0,71,-99.99,,,-99.99,,2013-03-07 01:52:00,
2013-03-06 20:01:00,32.0,23.0,-100.00,North,355,8.0,10.0,71,-99.99,,,-99.99,,2013-03-07 02:01:00,
2013-03-06 20:11:00,32.0,23.0,-100.00,North,350,6.0,9.0,71,-99.99,,,-99.99,,2013-03-07 02:11:00,
2013-03-06 20:21:00,32.0,23.0,-100.00,NNW,345,9.0,11.0,70,-99.99,,,-99.99,,2013-03-07 02:21:00,
2013-03-06 20:32:00,32.0,23.0,-100.00,NNW,345,9.0,11.0,70,-99.99,,,-99.99,,2013-03-07 02:32:00,
2013-03-06 20:41:00,32.0,23.0,-100.00,NNW,345,9.0,11.0,70,-99.99,,,-99.99,,2013-03-07 02:41:00,
2013-03-06 21:02:00,32.0,22.0,-100.00,NNW,330,4.0,6.0,66,-99.99,,,-99.99,,2013-03-07 03:02:00,
2013-03-06 21:11:00,31.0,21.0,-100.00,NW,325,6.0,9.0,65,-99.99,,,-99.99,,2013-03-07 03:11:00,
2013-03-06 21:21:00,31.0,21.0,-100.00,NW,320,8.0,10.0,65,-99.99,,,-99.99,,2013-03-07 03:21:00,
2013-03-06 21:32:00,31.0,21.0,-100.00,NW,320,8.0,10.0,65,-99.99,,,-99.99,,2013-03-07 03:32:00,
2013-03-06 21:42:00,31.0,22.0,-100.00,North,0,3.0,4.0,68,-99.99,,,-99.99,,2013-03-07 03:42:00,
2013-03-06 21:52:00,30.0,21.0,-100.00,NNE,15,9.0,10.0,68,-99.99,,,-99.99,,2013-03-07 03:52:00,
2013-03-06 22:01:00,30.0,21.0,-100.00,NNE,15,9.0,10.0,68,-99.99,,,-99.99,,2013-03-07 04:01:00,
2013-03-06 22:11:00,30.0,21.0,-100.00,NNE,15,3.0,6.0,68,-99.99,,,-99.99,,2013-03-07 04:11:00,
2013-03-06 22:22:00,30.0,20.0,-100.00,North,0,2.0,4.0,68,-99.99,,,-99.99,,2013-03-07 04:22:00,
2013-03-06 22:32:00,30.0,20.0,-100.00,North,0,2.0,4.0,68,-99.99,,,-99.99,,2013-03-07 04:32:00,
2013-03-06 22:42:00,30.0,20.0,-100.00,North,350,3.0,4.0,68,-99.99,,,-99.99,,2013-03-07 04:42:00,
2013-03-06 22:52:00,29.0,20.0,-100.00,NW,325,1.0,2.0,69,-99.99,,,-99.99,,2013-03-07 04:52:00,
2013-03-06 23:02:00,29.0,20.0,-100.00,NW,325,1.0,2.0,69,-99.99,,,-99.99,,2013-03-07 05:02:00,
2013-03-06 23:12:00,29.0,20.0,-100.00,NW,315,1.0,2.0,70,-99.99,,,-99.99,,2013-03-07 05:12:00,
2013-03-06 23:22:00,28.0,20.0,-100.00,North,0,1.0,2.0,72,-99.99,,,-99.99,,2013-03-07 05:22:00,
2013-03-06 23:30:00,27.0,21.0,-100.00,North,350,1.0,3.0,76,-99.99,,,-99.99,,2013-03-07 05:30:00,
2013-03-06 23:32:00,28.0,21.0,-100.00,NNE,25,0.0,0.0,73,-99.99,,,-99.99,,2013-03-07 05:32:00,
2013-03-06 23:42:00,28.0,21.0,-100.00,NNE,25,0.0,0.0,73,-99.99,,,-99.99,,2013-03-07 05:42:00,
2013-03-06 23:52:00,28.0,21.0,-100.00,South,190,0.0,0.0,74,-99.99,,,-99.99,,2013-03-07 05:52:00,